createdAt,value
2023-02-15T00:02:05.891Z,52.50
2023-02-15T00:17:50.161Z,52.50
2023-02-15T00:20:19.472Z,52.50
2023-02-15T00:22:47.223Z,52.60
2023-02-15T00:25:15.539Z,52.60
2023-02-15T00:27:43.313Z,52.60
2023-02-15T00:30:12.249Z,53.20
2023-02-15T00:32:40.238Z,52.60
2023-02-15T00:35:10.289Z,52.60
2023-02-15T00:37:38.224Z,52.70
2023-02-15T00:40:07.741Z,52.70
2023-02-15T00:42:35.483Z,52.70
2023-02-15T00:45:03.253Z,52.70
2023-02-15T00:47:31.597Z,52.60
2023-02-15T00:49:59.492Z,52.70
2023-02-15T00:52:29.533Z,52.70
2023-02-15T00:54:57.285Z,52.80
2023-02-15T00:57:25.447Z,52.90
2023-02-15T00:59:53.263Z,52.80
2023-02-15T01:02:21.047Z,52.80
2023-02-15T01:04:48.950Z,52.90
2023-02-15T01:07:16.779Z,52.80
2023-02-15T01:09:46.437Z,52.70
2023-02-15T01:12:14.271Z,52.80
2023-02-15T01:14:42.172Z,52.80
2023-02-15T01:17:10.132Z,52.90
2023-02-15T01:19:38.318Z,52.90
2023-02-15T01:22:06.141Z,52.80
2023-02-15T01:24:34.781Z,52.80
2023-02-15T01:27:04.092Z,53.00
2023-02-15T01:29:31.931Z,52.90
2023-02-15T01:31:59.882Z,52.90
2023-02-15T01:34:27.721Z,53.00
2023-02-15T01:36:55.463Z,53.00
2023-02-15T01:39:23.411Z,52.90
2023-02-15T01:41:52.076Z,53.00
2023-02-15T01:44:53.165Z,52.90
2023-02-15T01:47:23.923Z,52.80
2023-02-15T01:49:52.183Z,52.90
2023-02-15T01:52:20.171Z,52.90
2023-02-15T01:54:48.480Z,53.00
2023-02-15T01:57:18.340Z,53.00
2023-02-15T01:59:48.149Z,53.00
2023-02-15T02:02:17.521Z,52.90
2023-02-15T02:04:47.592Z,52.80
2023-02-15T02:07:16.358Z,52.80
2023-02-15T02:09:44.191Z,52.80
2023-02-15T02:12:12.509Z,53.50
2023-02-15T02:14:40.316Z,53.00
2023-02-15T02:17:11.269Z,52.90
2023-02-15T02:20:03.301Z,52.70
2023-02-15T02:22:57.275Z,52.80
2023-02-15T02:25:55.560Z,52.80
2023-02-15T02:28:44.453Z,52.80
2023-02-15T02:31:30.186Z,52.80
2023-02-15T02:34:02.626Z,52.80
2023-02-15T02:36:34.400Z,52.70
2023-02-15T02:39:11.697Z,52.70
2023-02-15T02:41:42.992Z,52.60
2023-02-15T02:44:14.943Z,52.80
2023-02-15T02:46:48.722Z,52.60
2023-02-15T02:49:17.822Z,52.50
2023-02-15T02:51:46.066Z,52.70
2023-02-15T02:54:13.935Z,53.30
2023-02-15T02:56:43.597Z,52.70
2023-02-15T02:59:13.113Z,52.60
2023-02-15T03:01:43.342Z,52.50
2023-02-15T03:04:12.194Z,52.50
2023-02-15T03:06:43.841Z,52.60
2023-02-15T03:09:15.418Z,52.50
2023-02-15T03:11:46.815Z,52.60
2023-02-15T03:14:14.947Z,52.50
2023-02-15T03:16:43.367Z,52.50
2023-02-15T03:19:12.404Z,52.40
2023-02-15T03:21:44.608Z,52.50
2023-02-15T03:24:16.261Z,52.60
2023-02-15T03:26:45.494Z,52.40
2023-02-15T03:29:13.407Z,52.50
2023-02-15T03:31:42.824Z,52.40
2023-02-15T03:34:12.107Z,52.40
2023-02-15T03:36:46.266Z,52.40
2023-02-15T03:39:18.868Z,53.00
2023-02-15T03:41:50.941Z,52.40
2023-02-15T03:44:21.194Z,52.20
2023-02-15T03:46:53.494Z,52.30
2023-02-15T03:49:23.983Z,52.40
2023-02-15T03:51:52.834Z,52.30
2023-02-15T03:54:37.266Z,52.40
2023-02-15T03:57:23.344Z,52.40
2023-02-15T04:00:08.691Z,52.20
2023-02-15T04:02:38.856Z,52.30
2023-02-15T04:05:07.143Z,52.40
2023-02-15T04:07:36.600Z,52.40
2023-02-15T04:10:22.262Z,52.50
2023-02-15T04:12:49.930Z,52.30
2023-02-15T04:15:35.521Z,52.40
2023-02-15T04:18:04.418Z,52.50
2023-02-15T04:20:50.189Z,52.40
2023-02-15T04:23:37.007Z,52.50
2023-02-15T04:26:05.370Z,52.50
2023-02-15T04:28:33.048Z,52.30
2023-02-15T04:31:01.163Z,52.30
2023-02-15T04:33:29.061Z,52.30
2023-02-15T04:35:57.583Z,52.40
2023-02-15T04:38:26.838Z,52.40
2023-02-15T04:40:55.042Z,52.40
2023-02-15T04:43:22.913Z,52.40
2023-02-15T04:45:51.814Z,52.40
2023-02-15T04:48:19.812Z,52.40
2023-02-15T04:50:48.003Z,52.40
2023-02-15T04:53:17.577Z,52.20
2023-02-15T04:55:46.990Z,52.30
2023-02-15T04:58:15.241Z,52.30
2023-02-15T05:00:43.247Z,52.40
2023-02-15T05:03:11.768Z,52.30
2023-02-15T05:05:39.515Z,52.40
2023-02-15T05:08:07.208Z,52.30
2023-02-15T05:10:35.398Z,52.40
2023-02-15T05:13:04.443Z,52.40
2023-02-15T05:15:32.535Z,52.30
2023-02-15T05:18:00.393Z,52.40
2023-02-15T05:20:28.537Z,52.30
2023-02-15T05:22:56.238Z,52.30
2023-02-15T05:25:42.157Z,52.20
2023-02-15T05:28:23.908Z,52.40
2023-02-15T05:30:52.479Z,52.50
2023-02-15T05:33:20.252Z,52.30
2023-02-15T05:35:48.482Z,52.20
2023-02-15T05:38:16.327Z,52.30
2023-02-15T05:40:44.605Z,52.40
2023-02-15T05:43:14.026Z,52.20
2023-02-15T05:45:42.445Z,52.20
2023-02-15T05:48:10.348Z,52.40
2023-02-15T05:50:38.544Z,52.20
2023-02-15T05:53:06.453Z,52.30
2023-02-15T05:55:34.652Z,52.30
2023-02-15T05:58:02.425Z,52.30
2023-02-15T06:00:31.703Z,52.30
2023-02-15T06:02:59.513Z,52.30
2023-02-15T06:05:27.336Z,52.30
2023-02-15T06:07:55.185Z,52.20
2023-02-15T06:10:23.014Z,52.30
2023-02-15T06:12:51.320Z,52.20
2023-02-15T06:15:19.341Z,52.30
2023-02-15T06:17:48.625Z,52.20
2023-02-15T06:20:16.733Z,52.30
2023-02-15T06:22:44.759Z,52.30
2023-02-15T06:25:13.101Z,52.20
2023-02-15T06:27:42.839Z,52.20
2023-02-15T06:30:11.888Z,52.20
2023-02-15T06:32:39.790Z,52.20
2023-02-15T06:35:09.622Z,52.20
2023-02-15T06:37:37.301Z,52.20
2023-02-15T06:40:06.161Z,52.10
2023-02-15T06:42:34.557Z,52.20
2023-02-15T06:45:02.455Z,52.30
2023-02-15T06:47:30.622Z,52.20
2023-02-15T06:49:58.534Z,52.50
2023-02-15T06:52:27.572Z,52.30
2023-02-15T06:54:55.263Z,52.30
2023-02-15T06:57:23.309Z,52.30
2023-02-15T06:59:51.417Z,52.40
2023-02-15T07:02:19.979Z,52.40
2023-02-15T07:04:47.874Z,52.30
2023-02-15T07:07:16.143Z,52.30
2023-02-15T07:09:45.495Z,52.30
2023-02-15T07:12:27.650Z,52.20
2023-02-15T07:14:55.545Z,52.30
2023-02-15T07:17:39.264Z,52.30
2023-02-15T07:20:11.674Z,52.20
2023-02-15T07:22:39.650Z,52.30
2023-02-15T07:25:10.781Z,52.30
2023-02-15T07:27:38.646Z,52.10
2023-02-15T07:30:08.358Z,52.20
2023-02-15T07:32:36.189Z,52.20
2023-02-15T07:35:03.918Z,52.10
2023-02-15T07:37:31.941Z,52.20
2023-02-15T07:39:59.715Z,52.10
2023-02-15T07:42:29.091Z,51.90
2023-02-15T07:44:56.855Z,52.10
2023-02-15T07:47:24.738Z,52.10
2023-02-15T07:49:52.565Z,52.20
2023-02-15T07:52:20.914Z,52.10
2023-02-15T07:54:48.914Z,52.30
2023-02-15T07:57:17.173Z,52.10
2023-02-15T07:59:46.473Z,52.30
2023-02-15T08:02:16.005Z,52.20
2023-02-15T08:04:45.379Z,52.20
2023-02-15T08:07:13.221Z,52.40
2023-02-15T08:09:41.213Z,52.40
2023-02-15T08:12:09.570Z,52.50
2023-02-15T08:14:37.696Z,52.50
2023-02-15T08:17:07.095Z,52.50
2023-02-15T08:19:35.473Z,52.80
2023-02-15T08:22:05.446Z,52.90
2023-02-15T08:24:34.721Z,53.00
2023-02-15T08:27:06.376Z,52.80
2023-02-15T08:29:34.615Z,52.90
2023-02-15T08:32:04.020Z,53.00
2023-02-15T08:34:34.525Z,53.40
2023-02-15T08:37:02.540Z,53.30
2023-02-15T08:39:30.683Z,53.50
2023-02-15T08:41:59.400Z,53.70
2023-02-15T08:44:27.530Z,54.00
2023-02-15T08:46:55.658Z,54.00
2023-02-15T08:49:23.757Z,54.10
2023-02-15T08:51:53.560Z,54.50
2023-02-15T08:54:22.828Z,54.70
2023-02-15T08:56:52.833Z,55.10
2023-02-15T08:59:21.662Z,55.30
2023-02-15T09:01:50.222Z,55.60
2023-02-15T09:04:18.380Z,56.00
2023-02-15T09:06:48.822Z,56.40
2023-02-15T09:09:18.851Z,56.40
2023-02-15T09:11:48.132Z,56.60
2023-02-15T09:14:17.229Z,57.10
2023-02-15T09:16:47.596Z,57.20
2023-02-15T09:19:15.354Z,57.60
2023-02-15T09:21:43.526Z,57.80
2023-02-15T09:24:12.029Z,58.10
2023-02-15T09:26:43.167Z,58.20
2023-02-15T09:29:11.192Z,58.40
2023-02-15T09:31:42.158Z,58.60
2023-02-15T09:34:09.886Z,59.00
2023-02-15T09:36:38.307Z,59.00
2023-02-15T09:39:08.822Z,59.10
2023-02-15T09:42:06.201Z,59.20
2023-02-15T09:44:41.054Z,59.40
2023-02-15T09:47:19.368Z,59.50
2023-02-15T09:49:51.437Z,59.50
2023-02-15T09:52:32.331Z,59.70
2023-02-15T09:55:10.781Z,59.60
2023-02-15T09:57:43.423Z,59.70
2023-02-15T10:00:15.403Z,59.60
2023-02-15T10:03:06.724Z,59.60
2023-02-15T10:05:40.405Z,59.70
2023-02-15T10:08:32.422Z,59.70
2023-02-15T10:11:25.463Z,59.70
2023-02-15T10:13:59.969Z,59.50
2023-02-15T10:16:30.612Z,59.50
2023-02-15T10:19:00.573Z,59.40
2023-02-15T10:21:40.408Z,59.20
2023-02-15T10:24:42.622Z,59.10
2023-02-15T10:27:14.262Z,59.00
2023-02-15T10:29:45.852Z,59.00
2023-02-15T10:32:20.433Z,59.00
2023-02-15T10:34:51.118Z,58.80
2023-02-15T10:37:41.750Z,58.40
2023-02-15T10:40:12.310Z,58.30
2023-02-15T10:42:45.947Z,58.10
2023-02-15T10:45:21.073Z,57.70
2023-02-15T10:48:09.055Z,57.40
2023-02-15T10:50:44.056Z,57.20
2023-02-15T10:53:19.245Z,56.80
2023-02-15T10:55:53.064Z,57.00
2023-02-15T10:58:27.265Z,56.40
2023-02-15T11:01:02.353Z,56.10
2023-02-15T11:03:38.118Z,56.00
2023-02-15T11:06:07.704Z,55.90
2023-02-15T11:08:37.890Z,55.70
2023-02-15T11:11:08.235Z,55.50
2023-02-15T11:13:38.930Z,55.30
2023-02-15T11:16:10.412Z,55.10
2023-02-15T11:18:39.393Z,55.00
2023-02-15T11:21:09.898Z,54.70
2023-02-15T11:23:38.006Z,54.40
2023-02-15T11:26:08.695Z,54.20
2023-02-15T11:28:38.927Z,53.70
2023-02-15T11:31:15.466Z,53.10
2023-02-15T11:33:45.397Z,52.60
2023-02-15T11:36:18.229Z,51.90
2023-02-15T11:38:46.540Z,51.10
2023-02-15T11:41:15.967Z,50.40
2023-02-15T11:43:45.746Z,49.90
2023-02-15T11:46:16.479Z,49.50
2023-02-15T11:48:44.400Z,49.50
2023-02-15T11:51:15.190Z,49.00
2023-02-15T11:53:44.143Z,48.70
2023-02-15T11:56:16.345Z,48.30
2023-02-15T11:58:45.937Z,48.10
2023-02-15T12:01:17.612Z,47.60
2023-02-15T12:03:48.089Z,47.10
2023-02-15T12:06:19.735Z,47.00
2023-02-15T12:08:51.901Z,46.40
2023-02-15T12:11:21.822Z,45.40
2023-02-15T12:13:57.486Z,45.20
2023-02-15T12:16:27.193Z,44.70
2023-02-15T12:18:55.358Z,44.50
2023-02-15T12:21:28.630Z,44.60
2023-02-15T12:23:57.741Z,44.60
2023-02-15T12:26:27.331Z,44.40
2023-02-15T12:28:55.791Z,43.70
2023-02-15T12:31:24.892Z,42.80
2023-02-15T12:33:55.993Z,42.00
2023-02-15T12:36:24.614Z,41.70
2023-02-15T12:39:05.752Z,41.60
2023-02-15T12:41:33.775Z,41.40
2023-02-15T12:44:06.695Z,41.20
2023-02-15T12:46:38.377Z,40.50
2023-02-15T12:49:20.752Z,39.90
2023-02-15T12:51:50.113Z,39.20
2023-02-15T12:54:23.590Z,39.20
2023-02-15T12:56:51.675Z,38.50
2023-02-15T12:59:23.176Z,38.40
2023-02-15T13:01:51.247Z,37.90
2023-02-15T13:04:23.941Z,37.90
2023-02-15T13:06:52.946Z,37.70
2023-02-15T13:09:22.237Z,28.30
2023-02-15T13:11:49.918Z,31.60
2023-02-15T13:14:20.103Z,33.20
2023-02-15T13:16:49.078Z,34.80
2023-02-15T13:19:18.749Z,34.70
2023-02-15T13:21:49.418Z,36.50
2023-02-15T13:24:20.293Z,37.80
2023-02-15T13:26:48.186Z,39.30
2023-02-15T13:29:19.461Z,40.30
2023-02-15T13:31:47.236Z,41.30
2023-02-15T13:34:19.189Z,45.40
2023-02-15T13:36:51.460Z,42.40
2023-02-15T13:39:25.028Z,39.40
2023-02-15T13:41:55.387Z,37.80
2023-02-15T13:44:28.126Z,35.90
2023-02-15T13:47:03.803Z,35.30
2023-02-15T13:49:39.787Z,34.70
2023-02-15T13:52:13.951Z,34.40
2023-02-15T13:54:50.643Z,33.90
2023-02-15T13:57:28.450Z,33.70
2023-02-15T14:00:05.122Z,33.90
2023-02-15T14:02:49.433Z,33.80
2023-02-15T14:05:37.243Z,33.90
2023-02-15T14:08:12.213Z,34.10
2023-02-15T14:10:48.763Z,34.20
2023-02-15T14:13:34.465Z,34.30
2023-02-15T14:16:05.085Z,34.30
2023-02-15T14:18:38.428Z,35.00
2023-02-15T14:21:09.027Z,34.70
2023-02-15T14:23:47.520Z,34.70
2023-02-15T14:26:21.222Z,34.90
2023-02-15T14:28:53.329Z,35.30
2023-02-15T14:31:22.056Z,35.80
2023-02-15T14:33:54.774Z,36.10
2023-02-15T14:36:22.737Z,36.50
2023-02-15T14:38:59.446Z,36.70
2023-02-15T14:41:29.878Z,37.00
2023-02-15T14:44:02.069Z,37.20
2023-02-15T14:46:33.144Z,37.60
2023-02-15T14:49:05.693Z,37.60
2023-02-15T14:52:01.062Z,37.80
2023-02-15T14:54:58.973Z,38.10
2023-02-15T14:57:36.368Z,38.40
2023-02-15T15:00:33.858Z,38.50
2023-02-15T15:03:02.081Z,38.90
2023-02-15T15:05:34.836Z,39.20
2023-02-15T15:08:03.616Z,39.30
2023-02-15T15:10:44.080Z,39.40
2023-02-15T15:14:02.967Z,39.50
2023-02-15T15:16:49.834Z,39.60
2023-02-15T15:20:08.569Z,39.80
2023-02-15T15:22:37.114Z,39.90
2023-02-15T15:25:06.374Z,40.10
2023-02-15T15:27:51.775Z,40.20
2023-02-15T15:31:03.344Z,40.20
2023-02-15T15:33:57.089Z,40.30
2023-02-15T15:37:03.842Z,40.60
2023-02-15T15:40:03.258Z,40.70
2023-02-15T15:42:35.714Z,41.00
2023-02-15T15:45:26.689Z,41.00
2023-02-15T15:48:06.991Z,41.10
2023-02-15T15:50:35.523Z,41.30
2023-02-15T15:53:03.903Z,41.60
2023-02-15T15:55:32.658Z,41.50
2023-02-15T15:58:01.938Z,41.50
2023-02-15T16:00:37.674Z,41.70
2023-02-15T16:03:05.581Z,41.60
2023-02-15T16:05:38.665Z,41.70
2023-02-15T16:08:06.493Z,41.90
2023-02-15T16:10:35.363Z,41.90
2023-02-15T16:13:03.376Z,42.00
2023-02-15T16:15:36.050Z,42.20
2023-02-15T16:18:03.756Z,42.20
2023-02-15T16:20:32.837Z,42.30
2023-02-15T16:23:11.741Z,42.30
2023-02-15T16:25:42.772Z,42.50
2023-02-15T16:28:10.919Z,42.60
2023-02-15T16:30:41.817Z,42.70
2023-02-15T16:33:10.708Z,42.90
2023-02-15T16:35:39.608Z,43.00
2023-02-15T16:38:07.645Z,43.20
2023-02-15T16:40:43.624Z,43.30
2023-02-15T16:43:16.118Z,43.50
2023-02-15T16:45:46.033Z,43.60
2023-02-15T16:48:17.121Z,43.60
2023-02-15T16:50:49.762Z,43.80
2023-02-15T16:53:20.270Z,43.90
2023-02-15T16:55:52.019Z,44.00
2023-02-15T16:58:20.128Z,44.20
2023-02-15T17:00:49.879Z,44.20
2023-02-15T17:03:25.129Z,44.40
2023-02-15T17:05:54.356Z,44.50
2023-02-15T17:08:27.401Z,44.70
2023-02-15T17:11:13.583Z,44.60
2023-02-15T17:13:41.695Z,44.80
2023-02-15T17:16:29.379Z,44.90
2023-02-15T17:18:59.722Z,44.90
2023-02-15T17:21:29.549Z,45.10
2023-02-15T17:24:00.234Z,45.20
2023-02-15T17:26:29.536Z,45.10
2023-02-15T17:28:58.131Z,45.20
2023-02-15T17:31:30.195Z,45.30
2023-02-15T17:33:59.330Z,45.30
2023-02-15T17:36:30.290Z,45.40
2023-02-15T17:39:03.265Z,45.50
2023-02-15T17:41:32.178Z,45.50
2023-02-15T17:44:00.132Z,45.60
2023-02-15T17:46:30.586Z,45.60
2023-02-15T17:48:58.568Z,45.60
2023-02-15T17:51:26.521Z,45.70
2023-02-15T17:54:12.196Z,45.80
2023-02-15T17:56:40.357Z,45.90
2023-02-15T17:59:09.536Z,45.90
2023-02-15T18:02:02.599Z,45.90
2023-02-15T18:04:47.818Z,45.90
2023-02-15T18:07:33.088Z,46.20
2023-02-15T18:10:18.341Z,46.20
2023-02-15T18:12:46.358Z,46.40
2023-02-15T18:15:14.413Z,46.50
2023-02-15T18:17:44.583Z,46.40
2023-02-15T18:20:20.426Z,46.50
2023-02-15T18:22:48.349Z,46.50
2023-02-15T18:25:17.657Z,46.60
2023-02-15T18:27:45.870Z,46.60
2023-02-15T18:30:16.165Z,46.70
2023-02-15T18:32:46.319Z,46.70
2023-02-15T18:35:16.209Z,46.80
2023-02-15T18:37:44.120Z,46.70
2023-02-15T18:40:16.569Z,46.90
2023-02-15T18:42:47.146Z,47.00
2023-02-15T18:45:17.804Z,47.10
2023-02-15T18:47:47.531Z,47.10
2023-02-15T18:50:15.651Z,47.20
2023-02-15T18:52:44.130Z,47.10
2023-02-15T18:55:18.021Z,47.30
2023-02-15T18:57:46.086Z,47.30
2023-02-15T19:00:18.550Z,47.30
2023-02-15T19:02:47.866Z,47.30
2023-02-15T19:05:16.144Z,47.40
2023-02-15T19:07:45.380Z,47.40
2023-02-15T19:10:18.795Z,47.50
2023-02-15T19:12:46.806Z,47.60
2023-02-15T19:15:16.655Z,47.60
2023-02-15T19:17:44.800Z,47.70
2023-02-15T19:20:18.441Z,47.70
2023-02-15T19:22:46.311Z,47.70
2023-02-15T19:25:15.809Z,47.70
2023-02-15T19:27:45.523Z,47.80
2023-02-15T19:30:16.352Z,47.90
2023-02-15T19:32:44.625Z,47.80
2023-02-15T19:35:17.130Z,47.90
2023-02-15T19:37:45.750Z,48.00
2023-02-15T19:40:22.206Z,48.00
2023-02-15T19:42:50.320Z,48.00
2023-02-15T19:45:19.116Z,42.20
2023-02-15T19:47:48.526Z,46.20
2023-02-15T19:50:18.784Z,49.70
2023-02-15T19:52:46.609Z,52.20
2023-02-15T19:55:25.407Z,54.10
2023-02-15T19:57:54.101Z,54.90
2023-02-15T20:00:23.268Z,57.10
2023-02-15T20:02:51.079Z,61.90
2023-02-15T20:05:21.117Z,59.00
2023-02-15T20:07:50.310Z,56.30
2023-02-15T20:10:18.720Z,53.90
2023-02-15T20:12:47.625Z,52.30
2023-02-15T20:15:20.857Z,51.10
2023-02-15T20:17:49.063Z,50.20
2023-02-15T20:20:17.141Z,49.40
2023-02-15T20:22:47.067Z,48.90
2023-02-15T20:25:17.441Z,48.50
2023-02-15T20:27:45.545Z,48.20
2023-02-15T20:30:18.156Z,47.90
2023-02-15T20:32:46.136Z,47.60
2023-02-15T20:35:15.175Z,47.40
2023-02-15T20:37:43.087Z,47.20
2023-02-15T20:40:17.255Z,47.10
2023-02-15T20:42:45.754Z,47.00
2023-02-15T20:45:18.581Z,47.10
2023-02-15T20:47:48.609Z,47.00
2023-02-15T20:50:18.032Z,46.90
2023-02-15T20:52:46.052Z,47.00
2023-02-15T20:55:17.263Z,46.90
2023-02-15T20:57:45.262Z,47.60
2023-02-15T21:00:19.059Z,46.80
2023-02-15T21:02:47.901Z,46.80
2023-02-15T21:05:17.108Z,46.80
2023-02-15T21:07:45.612Z,46.90
2023-02-15T21:10:19.187Z,47.00
2023-02-15T21:12:47.135Z,47.00
2023-02-15T21:15:42.893Z,47.00
2023-02-15T21:18:13.722Z,47.00
2023-02-15T21:20:43.372Z,47.00
2023-02-15T21:23:12.445Z,47.00
2023-02-15T21:25:41.508Z,47.00
2023-02-15T21:28:12.966Z,47.00
2023-02-15T21:30:40.932Z,46.90
2023-02-15T21:33:08.927Z,46.90
2023-02-15T21:35:37.784Z,46.90
2023-02-15T21:38:05.623Z,46.90
2023-02-15T21:40:33.744Z,46.80
2023-02-15T21:43:20.900Z,46.90
2023-02-15T21:46:11.412Z,46.80
2023-02-15T21:48:39.320Z,46.90
2023-02-15T21:51:25.058Z,46.90
2023-02-15T21:53:53.298Z,46.80
2023-02-15T21:56:22.375Z,46.80
2023-02-15T21:58:52.218Z,46.80
2023-02-15T22:01:22.737Z,47.00
2023-02-15T22:03:50.691Z,47.00
2023-02-15T22:06:18.616Z,47.30
2023-02-15T22:08:48.267Z,47.30
2023-02-15T22:11:17.445Z,47.30
2023-02-15T22:13:45.443Z,47.40
2023-02-15T22:16:17.544Z,47.40
2023-02-15T22:18:45.393Z,47.50
2023-02-15T22:21:16.961Z,47.50
2023-02-15T22:23:44.900Z,47.60
2023-02-15T22:26:15.506Z,47.60
2023-02-15T22:28:43.272Z,47.80
2023-02-15T22:31:13.285Z,47.70
2023-02-15T22:33:44.730Z,47.80
2023-02-15T22:36:20.802Z,47.80
2023-02-15T22:38:48.579Z,47.90
2023-02-15T22:41:17.039Z,47.90
2023-02-15T22:43:45.389Z,48.00
2023-02-15T22:46:15.955Z,48.00
2023-02-15T22:48:45.551Z,48.10
2023-02-15T22:51:14.240Z,48.10
2023-02-15T22:53:42.197Z,48.20
2023-02-15T22:56:13.732Z,48.30
2023-02-15T22:58:41.493Z,48.40
2023-02-15T23:01:11.367Z,48.50
2023-02-15T23:03:39.834Z,48.40
2023-02-15T23:06:10.506Z,48.40
2023-02-15T23:08:38.476Z,48.50
2023-02-15T23:11:06.871Z,48.50
2023-02-15T23:13:35.030Z,48.60
2023-02-15T23:16:03.475Z,48.50
2023-02-15T23:18:34.129Z,48.60
2023-02-15T23:21:03.699Z,48.50
2023-02-15T23:23:36.102Z,48.80
2023-02-15T23:26:04.743Z,48.70
2023-02-15T23:28:35.542Z,48.80
2023-02-15T23:31:04.238Z,48.90
2023-02-15T23:33:33.799Z,48.90
2023-02-15T23:36:02.237Z,48.90
2023-02-15T23:38:30.949Z,49.00
2023-02-15T23:41:19.071Z,49.00
2023-02-15T23:43:48.780Z,49.00
2023-02-15T23:46:28.107Z,49.10
2023-02-15T23:48:56.109Z,49.00
2023-02-15T23:51:25.492Z,49.10
2023-02-15T23:53:54.005Z,49.20
2023-02-15T23:56:23.319Z,49.10
2023-02-15T23:58:51.644Z,49.20
